Time;durP1;ratioP1;P1;durP2;ratioP2;P2;SDS_P1;SDS_P2;PMS_P1;PMS_P2;Temp;Humidity;BMP_temperature;BMP_pressure;BME280_temperature;BME280_humidity;BME280_pressure;Samples;Min_cycle;Max_cycle;Signal;HPM_P1;HPM_P2
2022/06/08 00:00:47;;;;;;;3.13;1.97;;;14.00;47.10;;;;;;4974208;28;20465;-68
2022/06/08 00:03:38;;;;;;;5.30;1.53;;;13.90;47.90;;;;;;4974505;28;20427;-68
2022/06/08 00:06:04;;;;;;;3.13;2.07;;;13.90;47.70;;;;;;4974414;28;20432;-68
2022/06/08 00:08:30;;;;;;;3.50;2.07;;;14.00;47.50;;;;;;4974188;28;20480;-68
2022/06/08 00:10:55;;;;;;;2.43;2.10;;;13.90;48.20;;;;;;4977677;28;20430;-68
2022/06/08 00:13:21;;;;;;;2.33;2.03;;;13.90;48.00;;;;;;4984452;28;20186;-68
2022/06/08 00:15:47;;;;;;;3.80;2.73;;;14.00;47.60;;;;;;4984668;28;20190;-68
2022/06/08 00:18:12;;;;;;;2.93;2.00;;;14.10;46.50;;;;;;4983862;28;20184;-68
2022/06/08 00:20:39;;;;;;;5.30;2.07;;;14.10;46.50;;;;;;4975436;28;20460;-67
2022/06/08 00:23:06;;;;;;;4.47;2.43;;;14.20;45.70;;;;;;4973781;28;20281;-68
2022/06/08 00:25:32;;;;;;;2.63;2.00;;;14.20;45.40;;;;;;4974184;28;20487;-67
2022/06/08 00:27:57;;;;;;;2.87;2.10;;;14.20;45.00;;;;;;4973705;28;20912;-68
2022/06/08 00:30:24;;;;;;;2.00;1.33;;;14.20;44.70;;;;;;4973686;28;20492;-68
2022/06/08 00:32:49;;;;;;;2.80;2.43;;;14.20;45.10;;;;;;4973467;28;20181;-68
2022/06/08 00:35:15;;;;;;;7.97;2.03;;;14.20;45.00;;;;;;4973698;28;20484;-69
2022/06/08 00:37:41;;;;;;;2.30;1.50;;;14.30;45.00;;;;;;4973598;28;20193;-68
2022/06/08 00:40:09;;;;;;;3.60;1.33;;;14.30;44.80;;;;;;4973422;28;20699;-68
2022/06/08 00:42:35;;;;;;;3.00;2.20;;;14.30;45.10;;;;;;4973195;28;20537;-68
2022/06/08 00:45:07;;;;;;;2.63;1.60;;;14.30;44.40;;;;;;4973622;28;20510;-68
2022/06/08 00:47:36;;;;;;;3.43;2.30;;;14.30;43.70;;;;;;4973640;28;20227;-68
2022/06/08 00:50:09;;;;;;;5.60;1.77;;;14.30;44.00;;;;;;4972942;28;20448;-67
2022/06/08 00:52:35;;;;;;;1.90;1.30;;;14.40;44.10;;;;;;4973184;28;20413;-69
2022/06/08 00:55:06;;;;;;;1.90;1.10;;;14.40;43.70;;;;;;4973267;28;20426;-68
2022/06/08 00:57:40;;;;;;;3.50;1.40;;;14.40;42.90;;;;;;4973478;28;20424;-68
2022/06/08 01:00:11;;;;;;;2.13;1.00;;;14.40;42.90;;;;;;4973138;28;20472;-68
2022/06/08 01:02:38;;;;;;;2.70;1.50;;;14.30;43.30;;;;;;4973145;28;20414;-68
2022/06/08 01:05:38;;;;;;;3.00;2.03;;;14.30;43.10;;;;;;4973201;28;20415;-68
2022/06/08 01:08:15;;;;;;;2.40;1.87;;;14.30;43.10;;;;;;4973132;28;20420;-68
2022/06/08 01:10:48;;;;;;;4.47;1.33;;;14.30;43.50;;;;;;4973301;28;20422;-68
2022/06/08 01:13:14;;;;;;;2.60;1.70;;;14.30;43.70;;;;;;4973010;28;20898;-70
2022/06/08 01:15:41;;;;;;;3.57;1.70;;;14.30;43.70;;;;;;4973142;28;20462;-67
2022/06/08 01:18:07;;;;;;;2.00;1.50;;;14.30;43.70;;;;;;4972921;28;20692;-68
2022/06/08 01:20:33;;;;;;;2.80;1.93;;;14.30;44.30;;;;;;4972918;28;20998;-67
2022/06/08 01:23:00;;;;;;;4.13;2.10;;;14.30;43.40;;;;;;4972631;28;20426;-68
2022/06/08 01:25:36;;;;;;;2.63;1.57;;;14.40;42.90;;;;;;4972925;28;20245;-69
2022/06/08 01:28:02;;;;;;;2.53;2.07;;;14.30;42.40;;;;;;4973120;28;20906;-68
2022/06/08 01:30:36;;;;;;;2.07;1.43;;;14.20;43.10;;;;;;4972911;28;20500;-68
2022/06/08 01:33:13;;;;;;;3.63;1.70;;;14.20;43.00;;;;;;4972751;28;20176;-67
2022/06/08 01:36:01;;;;;;;2.63;1.77;;;14.20;42.20;;;;;;4972970;28;20572;-67
2022/06/08 01:38:54;;;;;;;17.07;1.60;;;14.30;41.80;;;;;;4972765;28;20482;-68
2022/06/08 01:41:49;;;;;;;2.47;1.63;;;14.30;41.80;;;;;;4972717;28;20813;-69
2022/06/08 01:44:15;;;;;;;2.60;1.80;;;14.40;42.00;;;;;;4971563;28;20413;-70
2022/06/08 01:46:47;;;;;;;2.23;1.70;;;14.30;41.10;;;;;;4972876;28;20420;-67
2022/06/08 01:49:35;;;;;;;3.10;1.70;;;14.30;40.90;;;;;;4971396;28;20229;-69
2022/06/08 01:52:08;;;;;;;5.93;1.90;;;14.20;40.60;;;;;;4972697;28;20419;-67
2022/06/08 01:54:53;;;;;;;3.07;2.10;;;14.10;40.20;;;;;;4972725;28;20410;-67
2022/06/08 01:57:40;;;;;;;4.50;1.80;;;14.00;40.60;;;;;;4972855;28;20418;-67
2022/06/08 02:00:16;;;;;;;6.07;2.03;;;13.80;41.30;;;;;;4972726;28;20488;-67
2022/06/08 02:02:53;;;;;;;2.90;1.83;;;13.80;41.60;;;;;;4976005;28;20400;-67
2022/06/08 02:05:21;;;;;;;2.30;1.30;;;13.80;41.20;;;;;;4978288;28;20417;-67
2022/06/08 02:08:16;;;;;;;2.40;1.70;;;13.80;41.50;;;;;;4976403;28;20413;-68
2022/06/08 02:11:02;;;;;;;5.63;2.30;;;13.80;41.40;;;;;;4976905;28;20418;-69
2022/06/08 02:13:45;;;;;;;2.60;1.57;;;13.70;41.60;;;;;;4976181;28;20396;-68
2022/06/08 02:16:37;;;;;;;2.10;1.50;;;13.60;41.80;;;;;;4976329;28;20414;-69
2022/06/08 02:19:09;;;;;;;3.20;1.80;;;13.50;42.30;;;;;;4976112;28;20965;-69
2022/06/08 02:21:45;;;;;;;4.43;1.77;;;13.50;42.80;;;;;;4975925;28;20828;-69
2022/06/08 02:24:22;;;;;;;2.67;1.63;;;13.40;42.50;;;;;;4976329;28;20407;-69
2022/06/08 02:26:54;;;;;;;3.80;2.27;;;13.50;42.80;;;;;;4974766;28;20416;-69
2022/06/08 02:29:24;;;;;;;2.10;1.40;;;13.30;42.10;;;;;;4976211;28;20490;-69
2022/06/08 02:32:01;;;;;;;3.07;2.20;;;13.20;42.50;;;;;;4976049;28;20416;-69
2022/06/08 02:34:37;;;;;;;6.53;1.97;;;13.20;42.60;;;;;;4976035;28;20412;-69
2022/06/08 02:37:25;;;;;;;3.20;1.73;;;13.20;43.50;;;;;;4975768;28;20428;-69
2022/06/08 02:40:04;;;;;;;4.90;2.27;;;13.10;43.20;;;;;;4975806;28;20451;-69
2022/06/08 02:42:42;;;;;;;4.03;2.47;;;13.10;43.30;;;;;;4975757;28;20442;-69
2022/06/08 02:45:17;;;;;;;4.00;1.70;;;13.10;43.30;;;;;;4975940;28;20415;-68
2022/06/08 02:47:45;;;;;;;2.73;2.20;;;13.00;42.70;;;;;;4975794;28;20411;-69
2022/06/08 02:50:15;;;;;;;3.63;2.10;;;12.80;43.50;;;;;;4974298;28;20447;-69
2022/06/08 02:52:45;;;;;;;2.57;2.27;;;12.90;42.80;;;;;;4975474;28;20492;-69
2022/06/08 02:55:21;;;;;;;2.87;2.20;;;12.70;43.70;;;;;;4975681;28;20413;-69
2022/06/08 02:57:58;;;;;;;4.60;2.60;;;12.70;43.80;;;;;;4975738;28;20413;-69
2022/06/08 03:00:50;;;;;;;4.77;2.67;;;;;;;;;;4975767;28;20467;-69
2022/06/08 03:03:38;;;;;;;2.93;2.40;;;12.70;43.10;;;;;;4972605;28;20432;-69
2022/06/08 03:06:08;;;;;;;3.00;2.07;;;12.60;43.70;;;;;;4975616;28;20496;-69
2022/06/08 03:08:39;;;;;;;2.53;1.40;;;12.60;43.60;;;;;;4975219;28;20456;-69
2022/06/08 03:11:07;;;;;;;2.43;1.77;;;12.60;43.60;;;;;;4975334;28;20474;-69
2022/06/08 03:13:54;;;;;;;3.27;2.10;;;12.60;43.60;;;;;;4974666;28;20405;-69
2022/06/08 03:16:34;;;;;;;3.10;1.87;;;12.50;43.50;;;;;;4975325;28;20430;-69
2022/06/08 03:19:00;;;;;;;4.03;2.50;;;12.50;43.60;;;;;;4975244;28;20780;-69
2022/06/08 03:21:26;;;;;;;2.90;1.93;;;12.50;43.50;;;;;;4974834;28;20463;-69
2022/06/08 03:23:53;;;;;;;3.97;1.90;;;12.40;43.40;;;;;;4975224;28;20783;-69
2022/06/08 03:26:21;;;;;;;3.33;2.00;;;12.40;43.30;;;;;;4975152;28;20409;-69
2022/06/08 03:28:47;;;;;;;2.97;2.23;;;12.40;43.30;;;;;;4973706;28;20451;-69
2022/06/08 03:31:13;;;;;;;3.40;2.27;;;12.40;43.40;;;;;;4975252;28;20412;-69
2022/06/08 03:33:38;;;;;;;3.83;2.00;;;12.40;42.10;;;;;;4973679;28;20185;-69
2022/06/08 03:36:05;;;;;;;1.90;1.40;;;12.50;42.80;;;;;;4973537;28;20189;-69
2022/06/08 03:38:31;;;;;;;4.53;1.50;;;12.50;42.40;;;;;;4974810;28;20216;-69
2022/06/08 03:40:56;;;;;;;3.00;2.40;;;12.60;41.90;;;;;;4974744;28;20815;-69
2022/06/08 03:43:22;;;;;;;2.70;1.90;;;12.60;42.30;;;;;;4974562;28;20419;-69
2022/06/08 03:45:53;;;;;;;4.87;2.30;;;12.70;41.90;;;;;;4973445;28;20176;-69
2022/06/08 03:48:19;;;;;;;2.93;1.97;;;12.60;42.00;;;;;;4974713;28;20273;-70
2022/06/08 03:50:48;;;;;;;4.37;2.20;;;12.70;42.70;;;;;;4974647;28;20421;-69
2022/06/08 03:53:18;;;;;;;3.73;2.53;;;12.80;42.90;;;;;;4974307;28;20417;-69
2022/06/08 03:55:46;;;;;;;5.43;1.80;;;12.90;41.80;;;;;;4974634;28;20496;-69
2022/06/08 03:58:12;;;;;;;3.07;2.27;;;13.10;41.10;;;;;;4974470;28;20843;-69
2022/06/08 04:00:38;;;;;;;3.00;1.80;;;13.30;41.70;;;;;;4974347;28;20544;-69
2022/06/08 04:03:04;;;;;;;2.80;1.67;;;13.50;40.20;;;;;;4974223;28;20188;-69
2022/06/08 04:05:30;;;;;;;2.43;1.50;;;13.60;39.40;;;;;;4974479;28;20181;-70
2022/06/08 04:07:56;;;;;;;4.53;2.17;;;13.80;37.60;;;;;;4974497;28;20409;-69
2022/06/08 04:10:23;;;;;;;4.27;2.23;;;14.00;36.60;;;;;;4972995;28;20462;-69
2022/06/08 04:12:48;;;;;;;3.50;2.00;;;14.20;36.50;;;;;;4974032;28;20175;-69
2022/06/08 04:15:41;;;;;;;5.30;1.90;;;14.30;36.10;;;;;;4974102;28;20907;-69
2022/06/08 04:17:59;;;;;;;5.93;2.30;;;14.40;34.80;;;;;;4973922;28;20216;-69
2022/06/08 04:20:25;;;;;;;18.03;2.27;;;14.40;34.90;;;;;;4974034;28;20491;-69
2022/06/08 04:22:51;;;;;;;2.97;2.07;;;14.70;34.20;;;;;;4973737;28;20609;-69
2022/06/08 04:25:16;;;;;;;5.13;1.80;;;14.70;33.40;;;;;;4973417;28;20191;-69
2022/06/08 04:27:42;;;;;;;2.07;1.43;;;14.80;32.80;;;;;;4973925;28;20238;-69
2022/06/08 04:30:08;;;;;;;5.53;1.77;;;14.90;32.70;;;;;;4973943;28;20291;-69
2022/06/08 04:32:34;;;;;;;3.13;1.80;;;15.00;31.60;;;;;;4973841;28;20173;-69
2022/06/08 04:35:00;;;;;;;2.90;1.80;;;15.00;30.50;;;;;;4973825;28;20423;-69
2022/06/08 04:37:27;;;;;;;2.47;2.00;;;15.10;30.20;;;;;;4973961;28;20556;-69
2022/06/08 04:39:52;;;;;;;6.07;2.63;;;15.20;30.30;;;;;;4974550;28;20618;-68
2022/06/08 04:42:18;;;;;;;2.40;2.17;;;15.30;29.50;;;;;;4974548;28;20420;-68
2022/06/08 04:44:44;;;;;;;2.77;2.50;;;15.30;30.00;;;;;;4975136;28;20251;-69
2022/06/08 04:47:10;;;;;;;2.37;1.93;;;15.40;29.70;;;;;;4973967;28;20216;-68
2022/06/08 04:49:35;;;;;;;3.33;2.33;;;15.50;29.30;;;;;;4974046;28;20200;-68
2022/06/08 04:52:01;;;;;;;7.33;2.47;;;15.60;28.80;;;;;;4974147;28;20452;-68
2022/06/08 04:54:27;;;;;;;3.83;2.40;;;15.80;27.90;;;;;;4973811;28;20673;-69
2022/06/08 04:56:52;;;;;;;2.50;2.30;;;16.00;28.90;;;;;;4973655;28;20460;-69
2022/06/08 04:59:18;;;;;;;2.97;2.10;;;16.50;27.10;;;;;;4972287;28;20225;-68
2022/06/08 05:01:43;;;;;;;2.93;2.70;;;17.10;27.50;;;;;;4972058;28;20209;-69
2022/06/08 05:04:09;;;;;;;4.23;3.83;;;17.50;26.10;;;;;;4973838;28;20240;-69
2022/06/08 05:06:34;;;;;;;7.00;4.40;;;18.00;25.00;;;;;;4973337;28;20209;-69
2022/06/08 05:09:00;;;;;;;5.83;5.43;;;18.30;22.50;;;;;;4971927;28;20734;-69
2022/06/08 05:11:26;;;;;;;5.20;4.90;;;18.90;23.30;;;;;;4972817;28;20185;-67
2022/06/08 05:13:52;;;;;;;5.80;5.50;;;19.80;23.00;;;;;;4972959;28;20177;-67
2022/06/08 05:16:18;;;;;;;9.07;8.53;;;20.80;21.50;;;;;;4973179;28;20806;-67
2022/06/08 05:18:43;;;;;;;10.83;10.10;;;21.70;17.40;;;;;;4972944;28;20570;-67
2022/06/08 05:21:09;;;;;;;10.17;9.67;;;22.70;17.70;;;;;;4972848;28;20197;-67
2022/06/08 05:23:38;;;;;;;13.33;11.10;;;23.60;15.10;;;;;;4973132;28;20178;-69
2022/06/08 05:26:04;;;;;;;10.97;10.47;;;23.80;12.90;;;;;;4973646;28;20519;-69
2022/06/08 05:28:30;;;;;;;11.00;10.40;;;23.40;12.70;;;;;;4973025;28;20952;-71
2022/06/08 05:30:56;;;;;;;9.93;9.53;;;23.00;13.90;;;;;;4973414;28;20416;-68
2022/06/08 05:33:24;;;;;;;10.57;10.17;;;22.60;13.90;;;;;;4972717;28;20911;-67
2022/06/08 05:35:49;;;;;;;10.90;10.40;;;22.20;14.20;;;;;;4975399;28;20993;-67
2022/06/08 05:38:15;;;;;;;10.17;9.30;;;21.70;13.90;;;;;;4975752;28;20507;-67
2022/06/08 05:40:40;;;;;;;11.53;10.60;;;21.30;15.00;;;;;;4977066;28;20284;-67
2022/06/08 05:43:08;;;;;;;9.40;8.90;;;20.90;16.50;;;;;;4975147;28;20177;-67
2022/06/08 05:45:35;;;;;;;9.13;8.73;;;20.60;17.00;;;;;;4976745;28;20271;-67
2022/06/08 05:48:01;;;;;;;9.13;8.73;;;20.30;17.30;;;;;;4976874;28;20495;-67
2022/06/08 05:50:28;;;;;;;7.50;7.17;;;20.00;17.60;;;;;;4977090;28;20508;-68
2022/06/08 05:52:53;;;;;;;7.93;7.53;;;19.60;18.00;;;;;;4976503;28;20421;-68
2022/06/08 05:55:20;;;;;;;6.97;6.47;;;19.40;19.10;;;;;;4975459;28;20435;-67
2022/06/08 05:57:46;;;;;;;7.20;6.43;;;19.30;19.70;;;;;;4975222;28;20188;-67
2022/06/08 06:00:15;;;;;;;6.90;6.50;;;19.20;19.90;;;;;;4976452;28;20444;-67
2022/06/08 06:02:42;;;;;;;6.20;5.80;;;19.00;20.80;;;;;;4976256;28;20208;-67
2022/06/08 06:05:09;;;;;;;6.40;6.00;;;18.80;20.90;;;;;;4976410;28;20503;-67
2022/06/08 06:07:35;;;;;;;6.73;6.13;;;18.60;21.40;;;;;;4975137;28;20824;-67
2022/06/08 06:10:03;;;;;;;6.47;5.97;;;18.40;21.40;;;;;;4976460;28;20452;-68
2022/06/08 06:12:29;;;;;;;5.43;4.80;;;18.20;21.70;;;;;;4976330;28;20593;-67
2022/06/08 06:14:55;;;;;;;4.97;4.70;;;18.20;22.80;;;;;;4976731;28;20416;-68
2022/06/08 06:17:21;;;;;;;5.73;5.33;;;18.20;22.20;;;;;;4976602;28;20475;-68
2022/06/08 06:19:46;;;;;;;5.80;5.50;;;18.20;22.60;;;;;;4976473;28;20778;-67
2022/06/08 06:22:11;;;;;;;5.90;5.40;;;18.20;22.30;;;;;;4976215;28;20624;-67
2022/06/08 06:24:37;;;;;;;5.30;4.80;;;18.20;22.90;;;;;;4976605;28;20229;-67
2022/06/08 06:27:04;;;;;;;5.43;5.03;;;18.30;23.10;;;;;;4976721;28;20181;-67
2022/06/08 06:29:29;;;;;;;7.20;5.10;;;18.40;23.00;;;;;;4976340;28;20197;-68
2022/06/08 06:32:02;;;;;;;6.03;5.07;;;18.40;22.10;;;;;;4976005;28;20419;-67
2022/06/08 06:34:29;;;;;;;9.90;5.60;;;18.40;22.00;;;;;;4977815;28;20210;-68
2022/06/08 06:36:56;;;;;;;6.77;6.17;;;18.50;21.70;;;;;;4976262;28;20429;-68
2022/06/08 06:39:23;;;;;;;6.50;5.57;;;18.50;22.10;;;;;;4975453;28;20444;-68
2022/06/08 06:41:49;;;;;;;5.57;5.17;;;18.60;22.00;;;;;;4975748;28;20460;-67
2022/06/08 06:44:15;;;;;;;5.90;5.60;;;18.60;21.80;;;;;;4976268;28;20914;-67
2022/06/08 06:46:41;;;;;;;5.80;5.50;;;18.70;21.30;;;;;;4973783;28;20429;-70
2022/06/08 06:49:08;;;;;;;6.87;6.10;;;18.70;21.20;;;;;;4976282;28;20435;-69
2022/06/08 06:51:34;;;;;;;6.93;5.90;;;18.90;21.80;;;;;;4975516;28;20476;-69
2022/06/08 06:54:01;;;;;;;6.80;6.40;;;19.00;21.50;;;;;;4976056;28;20420;-67
2022/06/08 06:56:27;;;;;;;8.63;7.77;;;19.20;21.40;;;;;;4975820;28;20488;-66
2022/06/08 06:58:53;;;;;;;6.93;6.53;;;19.40;21.00;;;;;;4975727;28;20436;-67
2022/06/08 07:01:19;;;;;;;6.20;5.90;;;19.50;20.60;;;;;;4976077;28;20197;-69
2022/06/08 07:03:45;;;;;;;6.27;5.97;;;19.60;20.90;;;;;;4975713;28;20408;-69
2022/06/08 07:06:11;;;;;;;7.87;7.33;;;19.70;20.70;;;;;;4975835;28;20417;-69
2022/06/08 07:08:38;;;;;;;7.77;7.17;;;19.70;20.70;;;;;;4972394;28;20495;-69
2022/06/08 07:13:49;;;;;;;7.37;7.07;;;19.90;20.20;;;;;;4977014;28;20694;-68
2022/06/08 07:16:14;;;;;;;6.97;6.47;;;19.90;20.40;;;;;;4990937;28;20424;-68
2022/06/08 07:18:40;;;;;;;8.13;7.50;;;20.00;20.40;;;;;;4991531;28;21019;-68
2022/06/08 07:21:05;;;;;;;8.17;7.67;;;19.90;19.40;;;;;;4990838;28;20235;-68
2022/06/08 07:23:31;;;;;;;7.77;7.37;;;19.90;20.20;;;;;;4991961;28;20242;-68
2022/06/08 07:25:56;;;;;;;7.50;7.10;;;19.90;20.10;;;;;;4994278;28;20195;-67
2022/06/08 07:28:22;;;;;;;6.77;6.47;;;20.00;20.40;;;;;;4994558;28;20568;-68
2022/06/08 07:30:48;;;;;;;7.07;6.67;;;20.10;20.60;;;;;;4993825;28;20189;-67
2022/06/08 07:33:14;;;;;;;8.13;7.60;;;20.30;19.90;;;;;;5000824;28;20185;-67
2022/06/08 07:35:39;;;;;;;11.93;9.00;;;20.50;19.70;;;;;;4995779;28;20176;-68
2022/06/08 07:38:05;;;;;;;7.90;7.20;;;20.80;19.20;;;;;;4984211;28;20192;-69
2022/06/08 07:40:31;;;;;;;7.70;7.30;;;21.10;19.10;;;;;;4975947;28;20197;-70
2022/06/08 07:42:56;;;;;;;8.90;8.13;;;21.50;18.70;;;;;;4975111;28;20249;-68
2022/06/08 07:45:22;;;;;;;9.73;8.97;;;22.00;17.90;;;;;;4975081;28;20499;-68
2022/06/08 07:50:32;;;;;;;9.47;8.97;;;22.90;15.50;;;;;;4976069;28;20231;-69
2022/06/08 07:52:58;;;;;;;10.67;10.07;;;23.50;16.60;;;;;;4975905;28;20456;-68
2022/06/08 07:55:24;;;;;;;12.03;11.17;;;24.90;15.20;;;;;;4975585;28;20594;-69
2022/06/08 07:57:50;;;;;;;13.03;12.50;;;26.60;11.80;;;;;;4977225;28;20185;-69
2022/06/08 08:00:17;;;;;;;12.90;12.33;;;28.00;10.20;;;;;;4978120;28;20433;-68
2022/06/08 08:02:43;;;;;;;13.60;13.00;;;29.20;3.90;;;;;;4975537;28;20432;-69
2022/06/08 08:05:11;;;;;;;13.40;12.77;;;29.40;4.60;;;;;;4974797;28;20421;-68
2022/06/08 08:07:38;;;;;;;12.97;12.47;;;29.50;4.30;;;;;;4984472;28;20561;-69
2022/06/08 08:10:09;;;;;;;13.03;12.43;;;29.40;3.40;;;;;;4979877;28;20498;-70
2022/06/08 08:12:36;;;;;;;12.83;12.33;;;29.00;3.80;;;;;;4974346;28;20440;-70
2022/06/08 08:15:02;;;;;;;13.50;12.90;;;29.10;5.90;;;;;;4977426;28;20479;-70
2022/06/08 08:17:28;;;;;;;13.70;13.20;;;29.90;4.20;;;;;;4974985;28;20417;-70
2022/06/08 08:19:53;;;;;;;13.57;12.87;;;30.20;2.30;;;;;;4974370;28;20855;-70
2022/06/08 08:22:20;;;;;;;13.23;12.70;;;30.60;2.10;;;;;;4978212;28;20212;-72
2022/06/08 08:24:46;;;;;;;13.40;12.80;;;30.90;1.70;;;;;;4974799;28;20192;-71
2022/06/08 08:27:12;;;;;;;13.33;12.83;;;30.20;1.00;;;;;;4975097;28;20899;-71
2022/06/08 08:29:37;;;;;;;14.20;13.50;;;29.80;2.20;;;;;;4974718;28;20201;-72
2022/06/08 08:32:03;;;;;;;14.17;13.63;;;30.30;1.30;;;;;;4973064;28;20285;-72
2022/06/08 08:34:29;;;;;;;14.47;13.97;;;30.20;1.00;;;;;;4974329;28;20220;-71
2022/06/08 08:36:55;;;;;;;13.70;13.20;;;29.50;1.00;;;;;;4974399;28;20806;-71
2022/06/08 08:39:20;;;;;;;14.03;13.43;;;29.00;1.00;;;;;;4974632;28;20212;-72
2022/06/08 08:44:43;;;;;;;14.10;13.50;;;29.00;1.00;;;;;;4993503;28;20194;-73
2022/06/08 08:47:12;;;;;;;14.80;14.20;;;29.10;1.00;;;;;;4993445;28;20420;-71
2022/06/08 08:49:47;;;;;;;14.50;13.90;;;28.80;1.00;;;;;;4993327;28;20435;-72
2022/06/08 08:52:34;;;;;;;14.40;13.90;;;27.20;1.80;;;;;;4981809;28;20486;-70
2022/06/08 08:55:15;;;;;;;15.10;14.50;;;26.50;2.50;;;;;;4977358;28;20508;-69
2022/06/08 08:58:02;;;;;;;14.90;14.10;;;26.20;2.30;;;;;;4995002;28;20446;-69
2022/06/08 09:00:39;;;;;;;14.90;14.13;;;26.30;2.60;;;;;;4993524;28;20825;-70
2022/06/08 09:03:20;;;;;;;14.30;13.70;;;25.90;3.00;;;;;;4982936;28;20417;-69
2022/06/08 09:05:48;;;;;;;14.63;13.93;;;25.70;3.60;;;;;;4974017;28;20415;-69
2022/06/08 09:08:16;;;;;;;13.77;13.23;;;25.60;4.20;;;;;;4973658;28;20609;-70
2022/06/08 09:10:43;;;;;;;13.37;12.87;;;24.20;4.90;;;;;;4982741;28;20427;-68
2022/06/08 09:13:40;;;;;;;13.53;13.03;;;24.00;6.50;;;;;;4993690;28;20927;-69
2022/06/08 09:16:05;;;;;;;14.20;13.50;;;24.30;6.50;;;;;;4994643;28;20451;-69
2022/06/08 09:18:39;;;;;;;14.13;13.33;;;24.20;6.60;;;;;;4996713;28;20439;-71
2022/06/08 09:21:29;;;;;;;14.10;13.50;;;24.40;6.70;;;;;;4982323;28;20255;-72
2022/06/08 09:24:28;;;;;;;13.33;12.73;;;23.70;6.30;;;;;;4975474;28;20761;-70
2022/06/08 09:26:57;;;;;;;13.23;12.63;;;23.60;8.00;;;;;;4977057;28;20441;-70
2022/06/08 09:29:26;;;;;;;13.87;13.00;;;23.70;8.20;;;;;;4976741;28;21018;-69
2022/06/08 09:31:52;;;;;;;14.37;13.60;;;23.80;8.50;;;;;;4974750;28;20444;-70
2022/06/08 09:34:27;;;;;;;13.80;13.20;;;23.90;8.60;;;;;;4976392;28;20443;-70
2022/06/08 09:37:26;;;;;;;13.50;12.90;;;24.00;7.50;;;;;;4976143;28;20416;-69
2022/06/08 09:39:55;;;;;;;12.90;12.40;;;24.00;7.10;;;;;;4976888;28;20811;-70
2022/06/08 09:42:51;;;;;;;12.70;12.20;;;23.60;7.20;;;;;;4981487;28;20540;-69
2022/06/08 09:45:28;;;;;;;13.27;12.67;;;23.50;7.50;;;;;;4974486;28;20415;-71
2022/06/08 09:51:28;;;;;;;13.97;13.33;;;23.70;7.90;;;;;;4975799;28;20796;-70
2022/06/08 09:54:10;;;;;;;14.47;13.37;;;24.00;6.20;;;;;;4975751;28;20416;-69
2022/06/08 09:57:29;;;;;;;14.10;13.60;;;24.30;5.70;;;;;;4974080;28;20432;-70
2022/06/08 10:00:03;;;;;;;13.40;12.80;;;24.10;5.30;;;;;;4974923;28;20439;-70
2022/06/08 10:02:43;;;;;;;12.40;11.80;;;24.00;5.70;;;;;;4975414;28;20459;-70
2022/06/08 10:05:18;;;;;;;13.37;12.47;;;24.20;6.30;;;;;;4975430;28;20786;-70
2022/06/08 10:08:13;;;;;;;12.57;12.07;;;24.50;6.30;;;;;;4976060;28;20411;-69
2022/06/08 10:10:49;;;;;;;12.93;12.40;;;24.70;4.90;;;;;;4975272;28;20436;-70
2022/06/08 10:13:20;;;;;;;12.90;12.47;;;24.80;5.20;;;;;;4975061;28;20453;-71
2022/06/08 10:15:49;;;;;;;14.10;13.30;;;25.00;3.30;;;;;;4976139;28;20409;-71
2022/06/08 10:18:41;;;;;;;14.17;13.30;;;25.00;3.40;;;;;;4974332;28;20782;-71
2022/06/08 10:21:10;;;;;;;13.97;13.47;;;25.10;3.50;;;;;;4965988;28;20522;-70
2022/06/08 10:23:41;;;;;;;13.00;12.50;;;25.10;3.20;;;;;;4976218;28;20408;-70
2022/06/08 10:26:14;;;;;;;13.13;12.60;;;25.00;3.60;;;;;;4977202;28;20480;-70
2022/06/08 10:28:46;;;;;;;13.00;12.50;;;25.20;3.80;;;;;;4977559;28;20511;-70
2022/06/08 10:31:44;;;;;;;14.00;13.20;;;24.70;2.60;;;;;;4976316;28;20977;-68
2022/06/08 10:34:16;;;;;;;13.40;12.90;;;25.00;2.50;;;;;;4976042;28;20436;-71
2022/06/08 10:36:44;;;;;;;14.00;13.50;;;24.80;2.00;;;;;;4976675;28;20457;-71
2022/06/08 10:39:12;;;;;;;13.43;12.83;;;24.70;3.40;;;;;;4976541;28;20436;-71
2022/06/08 10:44:48;;;;;;;13.60;13.00;;;24.70;1.50;;;;;;4976535;28;20424;-70
2022/06/08 10:47:13;;;;;;;13.97;13.13;;;24.90;1.60;;;;;;4976153;28;20417;-71
2022/06/08 10:49:38;;;;;;;13.77;13.17;;;24.70;1.50;;;;;;4976057;28;20440;-70
2022/06/08 10:52:13;;;;;;;13.40;12.90;;;24.60;1.40;;;;;;4976057;28;20187;-70
2022/06/08 10:54:53;;;;;;;13.37;12.77;;;24.30;2.30;;;;;;4976334;28;20196;-70
2022/06/08 10:57:42;;;;;;;13.00;12.50;;;24.50;2.80;;;;;;4976563;28;20448;-70
2022/06/08 11:00:19;;;;;;;13.50;12.70;;;24.60;1.70;;;;;;4975977;28;20437;-70
2022/06/08 11:03:04;;;;;;;13.63;12.90;;;24.60;1.40;;;;;;4976110;28;20496;-70
2022/06/08 11:05:45;;;;;;;13.37;12.87;;;24.30;1.90;;;;;;4977067;28;20421;-70
2022/06/08 11:08:22;;;;;;;13.53;13.03;;;23.90;1.00;;;;;;4974494;28;20965;-68
2022/06/08 11:10:51;;;;;;;13.87;13.37;;;23.80;1.80;;;;;;4976142;28;20787;-69
2022/06/08 11:13:24;;;;;;;13.93;13.33;;;24.10;1.60;;;;;;4975529;28;20924;-70
2022/06/08 11:15:52;;;;;;;13.00;12.50;;;24.30;1.20;;;;;;4975617;28;20405;-70
2022/06/08 11:18:37;;;;;;;13.47;12.93;;;24.30;2.00;;;;;;4975621;28;20426;-70
2022/06/08 11:21:16;;;;;;;13.37;12.80;;;24.50;1.30;;;;;;4975386;28;20499;-71
2022/06/08 11:23:47;;;;;;;14.70;13.90;;;24.60;2.20;;;;;;4975624;28;20405;-70
2022/06/08 11:26:24;;;;;;;14.00;13.50;;;24.70;1.50;;;;;;4975268;28;20431;-71
2022/06/08 11:29:23;;;;;;;14.53;13.30;;;24.50;1.30;;;;;;4975402;28;20428;-71
2022/06/08 11:31:54;;;;;;;14.97;13.50;;;24.90;1.70;;;;;;4974743;28;20849;-70
2022/06/08 11:34:20;;;;;;;13.77;12.87;;;25.20;1.80;;;;;;4974831;28;20409;-70
2022/06/08 11:37:03;;;;;;;13.50;13.00;;;25.40;1.00;;;;;;4975257;28;20427;-69
2022/06/08 11:39:45;;;;;;;13.80;13.20;;;25.60;1.00;;;;;;4973764;28;20577;-71
2022/06/08 11:42:24;;;;;;;14.43;13.80;;;26.00;1.00;;;;;;4974630;28;20460;-68
2022/06/08 11:44:50;;;;;;;14.47;13.87;;;26.40;1.00;;;;;;4975151;28;20815;-67
2022/06/08 11:47:36;;;;;;;15.03;14.33;;;26.60;1.00;;;;;;4974994;28;20409;-69
2022/06/08 11:50:19;;;;;;;13.97;13.47;;;26.70;1.00;;;;;;4974969;28;20193;-70
2022/06/08 11:52:47;;;;;;;14.33;13.73;;;26.80;1.00;;;;;;4974491;28;20409;-69
2022/06/08 11:55:19;;;;;;;14.20;13.70;;;26.90;1.00;;;;;;4974966;28;20421;-68
2022/06/08 11:57:58;;;;;;;14.70;14.20;;;26.90;1.00;;;;;;4974858;28;20484;-70
2022/06/08 12:00:53;;;;;;;14.23;13.63;;;27.10;1.00;;;;;;4974650;28;20428;-70
2022/06/08 12:03:38;;;;;;;14.27;13.33;;;27.00;1.00;;;;;;4974606;28;20926;-70
2022/06/08 12:06:14;;;;;;;13.30;12.70;;;27.00;1.00;;;;;;4974694;28;20774;-70
2022/06/08 12:08:47;;;;;;;13.43;12.93;;;26.80;1.00;;;;;;4974510;28;20452;-70
2022/06/08 12:11:16;;;;;;;13.27;12.77;;;26.90;1.00;;;;;;4974466;28;20507;-69
2022/06/08 12:13:53;;;;;;;13.33;12.67;;;26.90;1.00;;;;;;4974358;28;20413;-70
2022/06/08 12:16:27;;;;;;;12.93;12.43;;;26.80;1.00;;;;;;4974443;28;20412;-70
2022/06/08 12:19:03;;;;;;;13.50;13.00;;;26.90;1.00;;;;;;4974542;28;20679;-70
2022/06/08 12:21:34;;;;;;;13.90;13.40;;;26.90;1.00;;;;;;4974075;28;20467;-70
2022/06/08 12:24:04;;;;;;;13.37;12.87;;;27.00;1.00;;;;;;4974130;28;20433;-70
2022/06/08 12:26:46;;;;;;;13.67;13.07;;;27.00;1.00;;;;;;4974222;28;20448;-69
2022/06/08 12:29:26;;;;;;;14.80;14.20;;;27.10;1.00;;;;;;4974240;28;20428;-70
2022/06/08 12:32:15;;;;;;;14.00;13.50;;;27.30;1.00;;;;;;4973729;28;20416;-70
2022/06/08 12:34:52;;;;;;;13.93;13.40;;;27.00;1.00;;;;;;4973939;28;20941;-70
2022/06/08 12:37:30;;;;;;;14.50;13.93;;;26.80;1.00;;;;;;4973791;28;20906;-69
2022/06/08 12:39:59;;;;;;;14.63;14.10;;;26.50;1.00;;;;;;4973908;28;20498;-70
2022/06/08 12:42:37;;;;;;;14.27;13.77;;;26.60;1.00;;;;;;4973597;28;20460;-70
2022/06/08 12:45:03;;;;;;;13.60;13.10;;;27.00;1.00;;;;;;4973161;28;20412;-69
2022/06/08 12:47:43;;;;;;;14.90;14.30;;;27.30;1.00;;;;;;4973710;28;20811;-69
2022/06/08 12:50:21;;;;;;;14.13;13.53;;;27.60;1.00;;;;;;4973652;28;20432;-69
2022/06/08 12:52:47;;;;;;;13.63;12.90;;;27.80;1.00;;;;;;4973402;28;20424;-68
2022/06/08 12:55:19;;;;;;;14.00;13.40;;;28.10;1.00;;;;;;4972214;28;20432;-68
2022/06/08 12:57:46;;;;;;;14.23;13.43;;;28.50;1.00;;;;;;4972323;28;20192;-69
2022/06/08 13:00:16;;;;;;;14.10;13.50;;;28.80;1.00;;;;;;4972190;28;20531;-69
2022/06/08 13:02:42;;;;;;;13.37;12.87;;;28.90;1.00;;;;;;4973417;28;20404;-70
2022/06/08 13:05:32;;;;;;;14.43;13.93;;;29.00;1.00;;;;;;4973633;28;20419;-70
2022/06/08 13:07:58;;;;;;;14.30;13.80;;;28.80;1.00;;;;;;4973573;28;20409;-70
2022/06/08 13:10:29;;;;;;;14.17;13.63;;;28.60;1.00;;;;;;4973176;28;20448;-70
2022/06/08 13:12:59;;;;;;;14.37;13.77;;;28.80;1.00;;;;;;4973101;28;20421;-70
2022/06/08 13:15:28;;;;;;;14.13;13.60;;;28.80;1.00;;;;;;4973439;28;20436;-70
2022/06/08 13:17:55;;;;;;;14.70;14.00;;;28.90;1.00;;;;;;4973238;28;20477;-70
2022/06/08 13:20:30;;;;;;;14.00;13.50;;;29.00;1.00;;;;;;4972946;28;20499;-71